createdAt,value
2023-01-03T00:01:54.759Z,7.36
2023-01-03T00:07:11.247Z,7.39
2023-01-03T00:12:31.053Z,7.45
2023-01-03T00:17:43.006Z,7.43
2023-01-03T00:22:53.174Z,7.46
2023-01-03T00:27:58.226Z,7.46
2023-01-03T00:33:10.402Z,7.47
2023-01-03T00:38:18.085Z,7.46
2023-01-03T00:43:37.996Z,7.46
2023-01-03T00:48:53.529Z,7.48
2023-01-03T00:54:16.018Z,7.46
2023-01-03T00:59:25.670Z,7.46
2023-01-03T01:04:41.710Z,7.48
2023-01-03T01:09:48.793Z,7.49
2023-01-03T01:15:02.763Z,7.52
2023-01-03T01:20:35.666Z,7.52
2023-01-03T01:25:51.826Z,7.54
2023-01-03T01:31:16.749Z,7.56
2023-01-03T01:36:39.545Z,7.58
2023-01-03T01:42:19.847Z,7.62
2023-01-03T01:47:43.636Z,7.60
2023-01-03T01:53:03.607Z,7.58
2023-01-03T01:58:17.429Z,7.55
2023-01-03T02:03:27.800Z,7.62
2023-01-03T02:08:43.315Z,7.63
2023-01-03T02:13:57.380Z,7.74
2023-01-03T02:19:55.892Z,7.90
2023-01-03T02:25:53.632Z,8.12
2023-01-03T02:31:16.757Z,8.33
2023-01-03T02:36:35.247Z,8.45
2023-01-03T02:42:15.567Z,8.50
2023-01-03T02:47:33.561Z,8.60
2023-01-03T02:52:52.224Z,8.64
2023-01-03T02:58:17.024Z,8.64
2023-01-03T03:03:29.939Z,8.65
2023-01-03T03:08:45.349Z,8.68
2023-01-03T03:14:07.917Z,8.69
2023-01-03T03:20:00.618Z,8.63
2023-01-03T03:25:16.326Z,8.61
2023-01-03T03:30:36.313Z,8.61
2023-01-03T03:35:47.666Z,8.64
2023-01-03T03:41:22.960Z,8.72
2023-01-03T03:46:50.555Z,8.75
2023-01-03T03:52:10.819Z,8.79
2023-01-03T03:57:33.182Z,8.82
2023-01-03T04:02:47.189Z,8.89
2023-01-03T04:07:58.358Z,8.87
2023-01-03T04:13:11.459Z,8.90
2023-01-03T04:18:22.693Z,8.91
2023-01-03T04:23:33.883Z,8.93
2023-01-03T04:28:51.249Z,8.90
2023-01-03T04:34:07.609Z,8.86
2023-01-03T04:39:25.218Z,8.83
2023-01-03T04:44:41.519Z,8.80
2023-01-03T04:49:49.399Z,8.77
2023-01-03T04:55:03.729Z,8.65
2023-01-03T05:00:18.685Z,8.59
2023-01-03T05:05:26.134Z,8.48
2023-01-03T05:10:42.581Z,8.41
2023-01-03T05:15:53.161Z,8.39
2023-01-03T05:21:27.686Z,8.34
2023-01-03T05:26:33.721Z,8.41
2023-01-03T05:31:59.063Z,8.39
2023-01-03T05:37:18.160Z,8.39
2023-01-03T05:42:41.352Z,8.37
2023-01-03T05:47:51.913Z,8.28
2023-01-03T05:53:02.322Z,8.33
2023-01-03T05:58:14.364Z,8.34
2023-01-03T06:03:24.833Z,8.33
2023-01-03T06:08:34.999Z,8.31
2023-01-03T06:13:42.120Z,8.27
2023-01-03T06:18:50.086Z,8.22
2023-01-03T06:24:05.089Z,8.20
2023-01-03T06:29:22.908Z,8.11
2023-01-03T06:34:33.247Z,8.10
2023-01-03T06:39:41.075Z,8.11
2023-01-03T06:45:10.606Z,8.11
2023-01-03T06:50:35.853Z,8.07
2023-01-03T06:55:56.136Z,8.05
2023-01-03T07:01:12.011Z,8.03
2023-01-03T07:06:25.241Z,8.06
2023-01-03T07:11:35.421Z,8.07
2023-01-03T07:16:53.994Z,8.11
2023-01-03T07:22:13.200Z,8.05
2023-01-03T07:27:20.795Z,8.14
2023-01-03T07:32:50.745Z,8.14
2023-01-03T07:38:14.657Z,8.16
2023-01-03T07:43:39.970Z,8.19
2023-01-03T07:48:57.082Z,8.20
2023-01-03T07:54:08.023Z,8.23
2023-01-03T07:59:27.445Z,8.26
2023-01-03T08:04:38.943Z,8.31
2023-01-03T08:10:00.772Z,8.39
2023-01-03T08:15:18.430Z,8.43
2023-01-03T08:20:24.613Z,8.41
2023-01-03T08:25:34.983Z,8.44
2023-01-03T08:30:49.461Z,8.47
2023-01-03T08:36:06.265Z,8.44
2023-01-03T08:41:21.079Z,8.51
2023-01-03T08:46:43.903Z,8.59
2023-01-03T08:51:52.825Z,8.66
2023-01-03T08:56:57.309Z,8.69
2023-01-03T09:02:05.027Z,8.72
2023-01-03T09:07:16.562Z,8.79
2023-01-03T09:12:39.417Z,8.89
2023-01-03T09:17:52.508Z,8.83
2023-01-03T09:23:04.489Z,8.80
2023-01-03T09:28:11.975Z,8.70
2023-01-03T09:33:28.185Z,8.75
2023-01-03T09:38:33.915Z,8.76
2023-01-03T09:43:46.885Z,8.78
2023-01-03T09:48:56.399Z,8.74
2023-01-03T09:54:35.271Z,8.67
2023-01-03T10:00:00.672Z,8.76
2023-01-03T10:05:25.010Z,8.92
2023-01-03T10:10:55.514Z,8.83
2023-01-03T10:16:16.778Z,8.95
2023-01-03T10:21:38.488Z,8.79
2023-01-03T10:27:01.344Z,8.80
2023-01-03T10:33:02.566Z,8.98
2023-01-03T10:38:19.300Z,9.07
2023-01-03T10:43:44.678Z,9.05
2023-01-03T10:49:26.592Z,9.12
2023-01-03T10:54:36.914Z,9.09
2023-01-03T10:59:56.506Z,9.13
2023-01-03T11:05:21.462Z,9.15
2023-01-03T11:10:39.798Z,9.25
2023-01-03T11:15:53.796Z,9.15
2023-01-03T11:21:23.514Z,9.17
2023-01-03T11:26:56.435Z,9.00
2023-01-03T11:32:25.001Z,9.00
2023-01-03T11:37:44.658Z,8.81
2023-01-03T11:43:10.501Z,8.84
2023-01-03T11:48:54.132Z,8.72
2023-01-03T11:54:10.073Z,8.75
2023-01-03T12:00:09.495Z,8.88
2023-01-03T12:05:44.372Z,8.68
2023-01-03T12:11:07.331Z,8.63
2023-01-03T12:16:34.455Z,8.46
2023-01-03T12:21:51.871Z,8.34
2023-01-03T12:27:06.587Z,8.29
2023-01-03T12:32:20.202Z,8.27
2023-01-03T12:37:33.760Z,8.05
2023-01-03T12:43:05.368Z,8.06
2023-01-03T12:48:32.606Z,8.00
2023-01-03T12:53:48.110Z,7.98
2023-01-03T12:59:19.511Z,7.97
2023-01-03T13:04:38.134Z,7.87
2023-01-03T13:09:50.143Z,7.72
2023-01-03T13:15:18.639Z,7.68
2023-01-03T13:20:41.475Z,7.60
2023-01-03T13:26:28.630Z,7.65
2023-01-03T13:31:39.269Z,7.56
2023-01-03T13:37:21.865Z,7.56
2023-01-03T13:42:49.392Z,7.50
2023-01-03T13:48:24.391Z,7.58
2023-01-03T13:53:35.943Z,7.63
2023-01-03T13:58:56.033Z,7.62
2023-01-03T14:04:46.198Z,7.54
2023-01-03T14:10:22.616Z,7.57
2023-01-03T14:15:35.336Z,7.44
2023-01-03T14:20:49.152Z,7.34
2023-01-03T14:26:04.679Z,7.31
2023-01-03T14:31:19.619Z,7.09
2023-01-03T14:36:24.591Z,6.89
2023-01-03T14:41:37.981Z,6.86
2023-01-03T14:47:17.404Z,6.75
2023-01-03T14:52:34.938Z,6.73
2023-01-03T14:57:44.013Z,6.77
2023-01-03T15:03:11.513Z,6.72
2023-01-03T15:08:26.584Z,6.61
2023-01-03T15:13:43.474Z,6.54
2023-01-03T15:19:11.618Z,6.55
2023-01-03T15:24:21.099Z,6.53
2023-01-03T15:29:30.075Z,6.54
2023-01-03T15:34:42.863Z,6.47
2023-01-03T15:40:04.583Z,6.47
2023-01-03T15:45:12.312Z,6.49
2023-01-03T15:50:21.856Z,6.50
2023-01-03T15:55:26.562Z,6.39
2023-01-03T16:00:39.783Z,6.36
2023-01-03T16:05:52.809Z,6.26
2023-01-03T16:11:19.551Z,6.14
2023-01-03T16:16:39.097Z,6.11
2023-01-03T16:22:02.492Z,6.05
2023-01-03T16:27:16.265Z,5.96
2023-01-03T16:32:29.738Z,5.81
2023-01-03T16:37:41.754Z,5.69
2023-01-03T16:42:55.293Z,5.33
2023-01-03T16:48:06.278Z,5.01
2023-01-03T16:53:37.293Z,4.77
2023-01-03T16:58:47.824Z,4.51
2023-01-03T17:04:07.134Z,4.63
2023-01-03T17:09:19.297Z,4.62
2023-01-03T17:14:38.553Z,4.54
2023-01-03T17:25:21.240Z,5.02
2023-01-03T17:30:29.991Z,5.11
2023-01-03T17:35:38.295Z,5.20
2023-01-03T17:40:50.231Z,5.14
2023-01-03T17:46:22.660Z,5.11
2023-01-03T17:51:33.554Z,5.13
2023-01-03T17:56:40.651Z,5.07
2023-01-03T18:01:48.705Z,5.06
2023-01-03T18:06:58.475Z,4.93
2023-01-03T18:12:04.501Z,4.82
2023-01-03T18:17:31.827Z,4.84
2023-01-03T18:22:54.877Z,4.67
2023-01-03T18:28:04.871Z,4.40
2023-01-03T18:33:12.785Z,4.04
2023-01-03T18:38:29.384Z,3.81
2023-01-03T18:43:35.699Z,3.78
2023-01-03T18:48:40.387Z,3.58
2023-01-03T18:53:58.908Z,3.35
2023-01-03T18:59:11.837Z,3.10
2023-01-03T19:04:19.522Z,2.94
2023-01-03T19:09:26.249Z,2.75
2023-01-03T19:14:34.862Z,2.68
2023-01-03T19:19:39.308Z,2.45
2023-01-03T19:24:43.860Z,2.26
2023-01-03T19:29:51.319Z,2.10
2023-01-03T19:34:56.340Z,2.35
2023-01-03T19:40:00.786Z,2.39
2023-01-03T19:45:15.683Z,2.12
2023-01-03T19:50:27.659Z,1.96
2023-01-03T19:55:44.986Z,2.00
2023-01-03T20:00:54.545Z,2.04
2023-01-03T20:06:02.103Z,2.08
2023-01-03T20:11:13.456Z,1.97
2023-01-03T20:16:19.345Z,2.06
2023-01-03T20:21:31.935Z,2.25
2023-01-03T20:26:42.935Z,2.28
2023-01-03T20:32:00.634Z,2.19
2023-01-03T20:37:06.191Z,2.12
2023-01-03T20:42:23.111Z,2.08
2023-01-03T20:47:42.119Z,2.02
2023-01-03T20:52:52.412Z,1.77
2023-01-03T20:58:00.326Z,1.70
2023-01-03T21:03:15.143Z,1.76
2023-01-03T21:09:03.597Z,1.85
2023-01-03T21:14:08.562Z,1.85
2023-01-03T21:19:24.713Z,1.84
2023-01-03T21:24:38.776Z,1.75
2023-01-03T21:29:46.946Z,1.58
2023-01-03T21:34:58.514Z,1.64
2023-01-03T21:40:38.398Z,1.90
2023-01-03T21:46:07.480Z,1.94
2023-01-03T21:51:33.474Z,1.75
2023-01-03T21:56:46.740Z,1.62
2023-01-03T22:02:09.675Z,1.56
2023-01-03T22:07:18.897Z,1.58
2023-01-03T22:12:35.781Z,1.72
2023-01-03T22:17:47.540Z,1.77
2023-01-03T22:22:53.957Z,1.79
2023-01-03T22:28:10.220Z,1.61
2023-01-03T22:33:23.642Z,1.63
2023-01-03T22:38:32.665Z,1.64
2023-01-03T22:43:40.322Z,1.63
2023-01-03T22:48:53.729Z,1.83
2023-01-03T22:54:07.834Z,1.98
2023-01-03T22:59:36.502Z,2.04
2023-01-03T23:04:49.754Z,2.07
2023-01-03T23:09:58.266Z,2.16
2023-01-03T23:15:17.218Z,2.15
2023-01-03T23:20:24.568Z,2.20
2023-01-03T23:25:31.109Z,2.26
2023-01-03T23:30:41.715Z,2.32
2023-01-03T23:35:55.271Z,2.29
2023-01-03T23:41:05.956Z,2.14
2023-01-03T23:46:17.691Z,2.01
2023-01-03T23:51:28.655Z,1.91
2023-01-03T23:56:38.480Z,1.98
